Bettembourg, Luxembourg
Current Conditions -  °F | °C
As of 9:20 AM on Tuesday 21 Oct 2014 (Local Time) from ELLX Reporting Station
Broken Clouds Broken Clouds  
Wind Chill: 50°   Ceiling: 1000
Heat Index: 50°   Visibility: 6mi
Dew Point: 48°   Wind: 13mph
Humidity: 94%   Direction: 220°SW
Pressure: 29.85"   Gusts: NA
Location:  49.52°N, 6.1°E
Report Text: ELLX 210720Z 22011KT 190V250 9999 BKN010 10/09 Q1011 NOSIG
Loading
Personal Weather Stations






























Interactive Weather Map
Tropical Storm Tracking
New forecast layout! Learn more

10-Day Weather Forecast

Advertisements
Track Severe Weather on mobile